Time;durP1;ratioP1;P1;durP2;ratioP2;P2;SDS_P1;SDS_P2;PMS_P1;PMS_P2;Temp;Humidity;BMP_temperature;BMP_pressure;BME280_temperature;BME280_humidity;BME280_pressure;Samples;Min_cycle;Max_cycle;Signal;HPM_P1;HPM_P2
2023/10/10 00:00:57;;;;;;;1207.50;555.23;;;14.30;99.90;;;;;;5056934;28;20044;-83
2023/10/10 00:03:26;;;;;;;1176.87;536.43;;;14.50;99.90;;;;;;5057071;28;20052;-83
2023/10/10 00:05:53;;;;;;;1166.00;529.77;;;14.50;99.90;;;;;;5040982;28;20501;-83
2023/10/10 00:08:23;;;;;;;1213.53;552.37;;;14.40;99.90;;;;;;5056287;28;20048;-83
2023/10/10 00:10:50;;;;;;;1180.50;532.63;;;14.40;99.90;;;;;;5074372;28;20041;-83
2023/10/10 00:13:17;;;;;;;1191.73;538.60;;;14.70;99.90;;;;;;5056179;28;20127;-83
2023/10/10 00:16:05;;;;;;;1226.50;552.10;;;14.40;99.90;;;;;;5082381;28;20043;-83
2023/10/10 00:18:29;;;;;;;1193.03;538.63;;;14.40;99.90;;;;;;5075767;28;20048;-83
2023/10/10 00:21:06;;;;;;;1221.33;548.13;;;14.40;99.90;;;;;;5094520;28;20040;-83
2023/10/10 00:23:42;;;;;;;1222.03;558.13;;;14.40;99.90;;;;;;5075750;28;20055;-83
2023/10/10 00:26:12;;;;;;;1180.77;529.87;;;14.40;99.90;;;;;;5092579;28;20381;-83
2023/10/10 00:28:42;;;;;;;1182.23;527.97;;;14.40;99.90;;;;;;5093805;28;20044;-84
2023/10/10 00:31:15;;;;;;;1180.20;528.53;;;14.40;99.90;;;;;;5094072;28;20062;-83
2023/10/10 00:33:41;;;;;;;1219.03;549.80;;;14.40;99.90;;;;;;5092014;28;20118;-83
2023/10/10 00:36:21;;;;;;;1214.50;547.50;;;14.40;99.90;;;;;;5092599;28;20136;-83
2023/10/10 00:39:08;;;;;;;1182.27;531.13;;;14.30;99.90;;;;;;5063840;28;20534;-83
2023/10/10 00:41:44;;;;;;;1218.67;551.73;;;14.40;99.90;;;;;;5093786;28;20492;-83
2023/10/10 00:44:17;;;;;;;1222.70;554.17;;;14.30;99.90;;;;;;5075716;28;20052;-83
2023/10/10 00:46:47;;;;;;;1184.73;537.20;;;14.30;99.90;;;;;;5069118;28;20123;-83
2023/10/10 00:49:17;;;;;;;1216.87;553.53;;;14.30;99.90;;;;;;5073520;28;20041;-83
2023/10/10 00:51:47;;;;;;;1222.70;554.73;;;14.40;99.90;;;;;;5073444;28;20129;-83
2023/10/10 00:56:54;;;;;;;1176.17;526.17;;;14.40;99.90;;;;;;5055160;28;20074;-83
2023/10/10 00:59:34;;;;;;;1215.70;554.47;;;14.40;99.90;;;;;;5074182;28;20040;-83
2023/10/10 01:02:03;;;;;;;1179.37;530.60;;;14.40;99.90;;;;;;5084864;28;20108;-83
2023/10/10 01:04:35;;;;;;;1177.17;529.40;;;14.40;99.90;;;;;;5075449;28;20040;-83
2023/10/10 01:07:07;;;;;;;1181.07;536.13;;;14.50;99.90;;;;;;5093286;28;20130;-83
2023/10/10 01:09:35;;;;;;;1178.83;528.47;;;14.50;99.90;;;;;;5091141;28;20083;-83
2023/10/10 01:12:04;;;;;;;1211.00;548.47;;;14.70;99.90;;;;;;5093025;28;20476;-83
2023/10/10 01:14:31;;;;;;;1183.47;532.60;;;14.40;99.90;;;;;;5075256;28;20044;-83
2023/10/10 01:17:00;;;;;;;1219.63;553.57;;;14.40;99.90;;;;;;5079460;28;20032;-83
2023/10/10 01:19:29;;;;;;;1220.50;557.87;;;14.50;99.90;;;;;;5055949;28;20468;-83
2023/10/10 01:21:59;;;;;;;1217.33;550.30;;;14.50;99.90;;;;;;5089554;28;20461;-83
2023/10/10 01:24:26;;;;;;;1223.83;552.73;;;14.40;99.90;;;;;;5093369;28;20090;-83
2023/10/10 01:26:52;;;;;;;1184.87;530.93;;;14.50;99.90;;;;;;5074939;28;20087;-83
2023/10/10 01:29:25;;;;;;;1181.97;527.20;;;14.50;99.90;;;;;;5073785;28;20433;-84
2023/10/10 01:31:58;;;;;;;1182.37;532.37;;;14.50;99.90;;;;;;5055216;28;20175;-83
2023/10/10 01:34:31;;;;;;;1182.27;533.13;;;14.50;99.90;;;;;;5072413;28;20044;-83
2023/10/10 01:40:00;;;;;;;1214.80;550.43;;;14.50;99.90;;;;;;5092899;28;20055;-83
2023/10/10 01:42:38;;;;;;;1180.60;535.17;;;14.50;99.90;;;;;;5072894;28;20059;-83
2023/10/10 01:45:08;;;;;;;1214.80;546.17;;;14.50;99.90;;;;;;5073645;28;20040;-83
2023/10/10 01:47:39;;;;;;;1214.00;546.57;;;14.50;99.90;;;;;;5054687;28;20095;-83
2023/10/10 01:50:10;;;;;;;1217.63;551.43;;;14.50;99.90;;;;;;5054824;28;20386;-83
2023/10/10 01:52:48;;;;;;;1219.33;554.07;;;14.50;99.90;;;;;;5073583;28;20477;-84
2023/10/10 01:55:17;;;;;;;1217.07;551.40;;;14.50;99.90;;;;;;5072660;28;20381;-84
2023/10/10 01:57:43;;;;;;;1181.03;532.27;;;14.50;99.90;;;;;;5076531;28;20068;-84
2023/10/10 02:02:50;;;;;;;1182.70;535.03;;;14.60;99.90;;;;;;5073230;28;20045;-81
2023/10/10 02:05:32;;;;;;;1175.57;529.60;;;14.60;99.90;;;;;;5071895;28;20044;-81
2023/10/10 02:07:58;;;;;;;1172.23;529.37;;;14.60;99.90;;;;;;5092496;28;20499;-84
2023/10/10 02:10:30;;;;;;;1177.93;532.87;;;14.60;99.90;;;;;;5091645;28;20488;-82
2023/10/10 02:12:59;;;;;;;1207.43;553.80;;;14.60;99.90;;;;;;5092092;28;20109;-85
2023/10/10 02:15:32;;;;;;;1210.30;553.27;;;14.50;99.90;;;;;;5092774;28;20435;-82
2023/10/10 02:18:04;;;;;;;1209.43;552.60;;;14.60;99.90;;;;;;5084196;28;20044;-82
2023/10/10 02:20:33;;;;;;;1180.60;534.67;;;14.60;99.90;;;;;;5072301;28;20497;-81
2023/10/10 02:25:46;;;;;;;1213.13;560.37;;;14.60;99.90;;;;;;5054229;28;20045;-82
2023/10/10 02:30:46;;;;;;;1207.87;546.67;;;14.60;99.90;;;;;;5072400;28;20056;-82
2023/10/10 02:35:55;;;;;;;1212.37;549.27;;;14.60;99.90;;;;;;5090433;28;20052;-82
2023/10/10 02:38:33;;;;;;;1179.30;539.20;;;14.60;99.90;;;;;;5073660;28;20051;-82
2023/10/10 02:46:36;;;;;;;1177.17;533.37;;;14.70;99.90;;;;;;4987735;28;20046;-82
2023/10/10 02:49:13;;;;;;;1210.38;550.88;;;14.60;99.90;;;;;;4978163;28;20066;-82
2023/10/10 02:51:40;;;;;;;1209.53;546.73;;;14.60;99.90;;;;;;4978017;28;20050;-82
2023/10/10 02:54:21;;;;;;;1214.43;552.03;;;14.60;99.90;;;;;;4994232;28;20124;-82
2023/10/10 02:56:48;;;;;;;1214.93;554.33;;;14.70;99.90;;;;;;4976090;28;20042;-82
2023/10/10 02:59:22;;;;;;;1214.57;555.80;;;14.70;99.90;;;;;;4994296;28;20046;-82
2023/10/10 03:02:09;;;;;;;1212.33;556.90;;;14.70;99.90;;;;;;4993296;28;20134;-82
2023/10/10 03:07:27;;;;;;;1177.67;533.00;;;14.80;99.90;;;;;;4976925;28;20122;-82
2023/10/10 03:12:36;;;;;;;1210.57;555.73;;;14.70;99.90;;;;;;4974491;28;20515;-82
2023/10/10 03:15:13;;;;;;;1207.70;551.50;;;14.80;99.90;;;;;;4974852;28;20090;-82
2023/10/10 03:20:13;;;;;;;1177.23;532.90;;;14.80;99.90;;;;;;5016198;28;20480;-82
2023/10/10 03:25:45;;;;;;;1213.50;556.80;;;14.80;99.90;;;;;;5025520;28;20057;-83
2023/10/10 03:28:19;;;;;;;1175.93;528.60;;;14.80;99.90;;;;;;5014621;28;20046;-82
2023/10/10 03:30:52;;;;;;;1173.03;529.37;;;14.80;99.90;;;;;;5014562;28;20084;-82
2023/10/10 03:33:35;;;;;;;1209.37;550.13;;;14.90;99.90;;;;;;5032913;28;20041;-82
2023/10/10 05:25:15;;;;;;;1229.83;550.47;;;14.90;99.90;;;;;;5073948;28;20091;-82
2023/10/10 05:27:41;;;;;;;1237.37;555.53;;;14.90;99.90;;;;;;5055133;28;20064;-82
2023/10/10 05:30:23;;;;;;;1225.53;547.97;;;15.00;99.90;;;;;;5054854;28;20040;-82
2023/10/10 05:33:02;;;;;;;1194.17;527.90;;;14.90;99.90;;;;;;5089822;28;20105;-82
2023/10/10 05:35:38;;;;;;;1192.00;521.87;;;14.90;99.90;;;;;;5066393;28;20041;-82
2023/10/10 05:38:07;;;;;;;1197.13;524.40;;;14.90;99.90;;;;;;5072668;28;20048;-82
2023/10/10 05:40:33;;;;;;;1195.70;531.57;;;14.90;99.90;;;;;;5072741;28;20396;-82
2023/10/10 05:43:03;;;;;;;1199.67;530.70;;;14.90;99.90;;;;;;5072994;28;20119;-82
2023/10/10 05:45:29;;;;;;;1240.27;555.67;;;14.90;99.90;;;;;;5076107;28;20047;-82
2023/10/10 05:47:55;;;;;;;1203.97;530.00;;;14.80;99.90;;;;;;5078067;28;20139;-82
2023/10/10 05:50:22;;;;;;;1205.53;526.60;;;14.90;99.90;;;;;;5054641;28;20068;-82
2023/10/10 05:52:48;;;;;;;1201.70;527.53;;;14.80;99.90;;;;;;5072770;28;20052;-82
2023/10/10 05:55:17;;;;;;;1199.33;524.13;;;14.80;99.90;;;;;;5054808;28;20045;-82
2023/10/10 05:57:43;;;;;;;1243.60;556.77;;;14.80;99.90;;;;;;5073818;28;20045;-82
2023/10/10 06:00:10;;;;;;;1255.27;541.20;;;14.80;99.90;;;;;;5054250;28;20132;-82
2023/10/10 06:02:46;;;;;;;1211.67;520.27;;;14.80;99.90;;;;;;5064576;28;20484;-82
2023/10/10 06:05:15;;;;;;;1204.33;518.37;;;14.80;99.90;;;;;;5074761;28;20090;-82
2023/10/10 06:07:44;;;;;;;1201.87;517.57;;;14.70;99.90;;;;;;5087273;28;20043;-81
2023/10/10 06:10:17;;;;;;;1248.33;545.47;;;14.80;99.90;;;;;;5071780;28;20040;-84
2023/10/10 06:12:47;;;;;;;1207.73;523.10;;;14.70;99.90;;;;;;5072256;28;20041;-83
2023/10/10 06:15:17;;;;;;;1204.53;510.90;;;14.70;99.90;;;;;;5054467;28;20124;-84
2023/10/10 06:17:48;;;;;;;1257.87;549.93;;;14.70;99.90;;;;;;5065748;28;20044;-83
2023/10/10 06:20:16;;;;;;;1257.90;547.37;;;14.70;99.90;;;;;;5075825;28;20403;-82
2023/10/10 06:22:47;;;;;;;1254.07;544.23;;;14.70;99.90;;;;;;5097068;28;20047;-82
2023/10/10 06:25:17;;;;;;;1208.27;519.87;;;14.70;99.90;;;;;;5096679;28;20068;-82
2023/10/10 06:27:54;;;;;;;1207.27;519.47;;;14.70;99.90;;;;;;5076590;28;20090;-83
2023/10/10 06:30:24;;;;;;;1204.70;521.33;;;14.70;99.90;;;;;;5061472;28;20044;-81
2023/10/10 06:33:01;;;;;;;1206.60;516.40;;;14.60;99.90;;;;;;5065584;28;20079;-82
2023/10/10 06:35:27;;;;;;;1263.00;547.70;;;14.70;99.90;;;;;;5058424;28;20473;-82
2023/10/10 06:37:53;;;;;;;1255.13;545.17;;;14.90;99.90;;;;;;5075668;28;20091;-82
2023/10/10 06:40:27;;;;;;;1214.57;512.47;;;14.60;99.90;;;;;;5060225;28;20064;-82
2023/10/10 06:42:56;;;;;;;1211.73;502.30;;;14.70;99.90;;;;;;5041525;28;20036;-82
2023/10/10 06:45:26;;;;;;;1269.80;547.53;;;14.70;99.90;;;;;;5040961;28;20098;-84
2023/10/10 06:47:54;;;;;;;1214.77;517.63;;;15.00;99.90;;;;;;5069984;28;20049;-82
2023/10/10 06:50:23;;;;;;;1219.83;514.57;;;14.80;99.90;;;;;;5093923;28;20068;-81
2023/10/10 06:52:52;;;;;;;1264.97;547.27;;;14.80;99.90;;;;;;5095073;28;20039;-81
2023/10/10 06:55:22;;;;;;;1217.53;510.73;;;14.80;99.90;;;;;;5077647;28;20123;-83
2023/10/10 06:57:58;;;;;;;1262.80;542.27;;;14.90;99.90;;;;;;5095726;28;20043;-82
2023/10/10 07:00:28;;;;;;;1204.87;502.37;;;14.90;99.90;;;;;;5070712;28;20534;-82
2023/10/10 07:02:58;;;;;;;1259.17;547.03;;;14.90;99.90;;;;;;5075429;28;20064;-81
2023/10/10 07:05:33;;;;;;;1215.43;502.93;;;14.90;99.90;;;;;;5057433;28;20052;-83
2023/10/10 07:07:59;;;;;;;1263.30;545.83;;;15.00;99.90;;;;;;5075122;28;20048;-83
2023/10/10 07:10:32;;;;;;;1274.87;546.80;;;15.00;99.90;;;;;;5058310;28;20516;-82
2023/10/10 07:12:59;;;;;;;1274.87;546.10;;;15.10;99.90;;;;;;5061678;28;20122;-82
2023/10/10 07:15:26;;;;;;;1262.67;548.57;;;15.10;99.90;;;;;;5085668;28;20113;-81
2023/10/10 07:18:04;;;;;;;1251.50;546.67;;;15.10;99.90;;;;;;5077634;28;20396;-81
2023/10/10 07:23:16;;;;;;;1198.03;503.73;;;15.20;99.90;;;;;;5095152;28;20119;-81
2023/10/10 07:25:44;;;;;;;1195.07;505.47;;;15.30;99.90;;;;;;5077301;28;20481;-81
2023/10/10 07:28:14;;;;;;;1257.17;544.23;;;15.30;99.90;;;;;;5095470;28;20497;-81
2023/10/10 07:30:44;;;;;;;1207.23;501.43;;;15.40;99.90;;;;;;5095162;28;20063;-81
2023/10/10 07:33:13;;;;;;;1266.23;544.03;;;15.50;99.90;;;;;;5094374;28;20059;-81
2023/10/10 07:35:43;;;;;;;1206.40;504.00;;;15.60;99.90;;;;;;5095151;28;20036;-81
2023/10/10 07:38:09;;;;;;;1263.17;540.60;;;15.70;99.90;;;;;;5076667;28;20047;-81
2023/10/10 07:40:38;;;;;;;1270.03;545.77;;;15.80;99.90;;;;;;5095120;28;20055;-81
2023/10/10 07:43:04;;;;;;;1216.23;493.70;;;15.90;99.90;;;;;;5095047;28;20431;-81
2023/10/10 07:45:33;;;;;;;1219.73;499.50;;;16.00;99.90;;;;;;5094805;28;20044;-81
2023/10/10 07:50:35;;;;;;;1275.70;547.47;;;16.30;99.90;;;;;;5076485;28;20142;-81
2023/10/10 07:53:12;;;;;;;1213.27;500.73;;;16.30;99.90;;;;;;5076612;28;20046;-81
2023/10/10 07:58:24;;;;;;;1281.77;552.90;;;16.40;99.90;;;;;;5094582;28;20472;-81
2023/10/10 08:00:53;;;;;;;1220.20;503.07;;;16.50;99.90;;;;;;5094650;28;20036;-81
2023/10/10 08:03:19;;;;;;;1223.20;515.20;;;16.50;99.90;;;;;;5094471;28;20064;-81
2023/10/10 08:05:48;;;;;;;1222.00;496.67;;;16.50;99.90;;;;;;5094830;28;20115;-81
2023/10/10 08:08:15;;;;;;;1215.83;481.33;;;16.60;99.90;;;;;;5076350;28;20043;-81
2023/10/10 08:10:44;;;;;;;1216.90;483.57;;;16.60;99.90;;;;;;5076627;28;20338;-81
2023/10/10 08:13:10;;;;;;;1284.13;539.90;;;16.60;99.90;;;;;;5094401;28;20089;-81
2023/10/10 08:16:20;;;;;;;1208.37;467.30;;;16.70;99.90;;;;;;5094192;28;20052;-81
2023/10/10 08:18:52;;;;;;;1287.33;537.07;;;16.70;99.90;;;;;;5090879;28;20301;-81
2023/10/10 08:21:22;;;;;;;1279.40;528.57;;;16.80;99.90;;;;;;5094163;28;20071;-81
2023/10/10 08:23:50;;;;;;;1212.17;478.40;;;16.80;99.90;;;;;;5094194;28;20270;-81
2023/10/10 08:26:24;;;;;;;1289.37;525.43;;;16.80;99.90;;;;;;5075673;28;20294;-81
2023/10/10 08:28:50;;;;;;;1220.03;483.52;;;16.90;99.90;;;;;;5075983;28;20098;-81
2023/10/10 08:31:17;;;;;;;1219.03;490.50;;;16.90;99.90;;;;;;5094050;28;20040;-81
2023/10/10 08:33:46;;;;;;;1231.10;521.77;;;16.90;99.90;;;;;;5094110;28;20286;-81
2023/10/10 08:36:23;;;;;;;1248.20;557.13;;;17.00;99.90;;;;;;5075923;28;20044;-81
2023/10/10 08:38:53;;;;;;;1247.03;549.53;;;17.00;99.90;;;;;;5093810;28;20046;-81
2023/10/10 08:41:22;;;;;;;1246.40;536.47;;;17.00;99.90;;;;;;5093991;28;20097;-81
2023/10/10 08:44:01;;;;;;;1310.10;541.33;;;17.10;99.90;;;;;;5093714;28;20032;-81
2023/10/10 08:46:40;;;;;;;1234.83;496.53;;;17.20;99.90;;;;;;5093719;28;20083;-81
2023/10/10 08:49:07;;;;;;;1326.03;539.40;;;17.20;99.90;;;;;;5093716;28;20131;-81
2023/10/10 08:51:34;;;;;;;1256.43;520.63;;;17.30;99.90;;;;;;5058995;28;20039;-81
2023/10/10 08:54:11;;;;;;;1313.43;553.10;;;17.40;99.90;;;;;;5093703;28;20066;-81
2023/10/10 08:56:39;;;;;;;1310.93;537.00;;;17.40;99.90;;;;;;5093616;28;20037;-81
2023/10/10 08:59:11;;;;;;;1306.57;549.87;;;17.40;99.90;;;;;;5075317;28;20146;-81
2023/10/10 09:01:37;;;;;;;1245.57;519.43;;;17.50;99.90;;;;;;5093495;28;20412;-81
2023/10/10 09:04:04;;;;;;;1232.57;509.67;;;17.60;99.90;;;;;;5093427;28;20044;-81
2023/10/10 09:06:43;;;;;;;1309.90;533.50;;;17.60;99.90;;;;;;5093362;28;20082;-81
2023/10/10 09:09:33;;;;;;;1312.83;547.90;;;17.70;99.90;;;;;;5058310;28;20036;-81
2023/10/10 09:11:56;;;;;;;;;;;17.80;99.90;;;;;;5093502;28;20147;-81
2023/10/10 09:14:50;;;;;;;1298.10;528.30;;;17.90;99.90;;;;;;5093237;28;20429;-81
2023/10/10 09:17:35;;;;;;;1306.50;547.77;;;18.00;99.90;;;;;;5093180;28;20054;-81
2023/10/10 09:22:51;;;;;;;;;;;18.10;99.90;;;;;;5075406;28;20052;-81
2023/10/10 09:25:26;;;;;;;1290.90;525.67;;;18.20;99.90;;;;;;5093039;28;20288;-81
2023/10/10 09:27:59;;;;;;;1289.05;530.83;;;18.20;99.90;;;;;;5075173;28;20036;-81
2023/10/10 09:30:31;;;;;;;1215.97;481.07;;;18.30;99.90;;;;;;5093014;28;20054;-80
2023/10/10 09:33:03;;;;;;;1204.70;483.03;;;18.30;99.90;;;;;;5092964;28;20131;-80
2023/10/10 09:35:29;;;;;;;1270.67;570.30;;;18.40;99.90;;;;;;5074966;28;20515;-80
2023/10/10 09:38:00;;;;;;;1344.77;558.37;;;18.40;99.90;;;;;;5092892;28;20048;-80
2023/10/10 09:40:25;;;;;;;1285.43;571.37;;;18.50;99.90;;;;;;5074577;28;20055;-80
2023/10/10 09:48:28;;;;;;;1297.90;572.80;;;18.80;99.90;;;;;;5072696;28;20044;-80
2023/10/10 09:51:16;;;;;;;1298.83;589.93;;;18.90;99.90;;;;;;5068447;28;20090;-81
2023/10/10 09:53:46;;;;;;;1300.50;594.33;;;19.00;99.90;;;;;;5054731;28;20579;-80
2023/10/10 09:56:15;;;;;;;1298.10;588.80;;;19.00;99.90;;;;;;5072182;28;20118;-82
2023/10/10 09:58:43;;;;;;;1288.73;626.80;;;19.10;99.90;;;;;;5055234;28;20076;-82
2023/10/10 10:01:18;;;;;;;1344.90;579.43;;;19.10;99.90;;;;;;5073730;28;20041;-81
2023/10/10 10:04:00;;;;;;;1297.25;614.45;;;19.10;99.90;;;;;;5088090;28;20040;-80
2023/10/10 10:06:53;;;;;;;1302.77;621.97;;;19.10;99.90;;;;;;5074681;28;20044;-81
2023/10/10 10:09:45;;;;;;;1302.90;619.23;;;19.20;99.90;;;;;;5092476;28;20495;-81
2023/10/10 10:12:41;;;;;;;1360.60;576.83;;;19.20;99.90;;;;;;5092800;28;20044;-81
2023/10/10 10:15:38;;;;;;;;;;;19.30;99.90;;;;;;5093111;28;20048;-80
2023/10/10 10:18:18;;;;;;;1300.05;620.88;;;19.40;99.90;;;;;;4994266;28;19922;-81
2023/10/10 10:20:47;;;;;;;1312.40;633.70;;;19.40;99.90;;;;;;5010670;28;20410;-81
2023/10/10 10:23:33;;;;;;;1308.77;622.30;;;19.50;99.90;;;;;;5005931;28;20410;-81
2023/10/10 10:26:08;;;;;;;1311.50;635.07;;;19.50;99.90;;;;;;5010331;28;20062;-81
2023/10/10 10:28:37;;;;;;;1369.57;588.47;;;19.50;99.90;;;;;;5010747;28;20046;-82
2023/10/10 10:31:28;;;;;;;1374.77;589.60;;;19.60;99.90;;;;;;5010643;28;20082;-85
2023/10/10 10:34:08;;;;;;;1367.40;585.67;;;19.60;99.90;;;;;;4994000;28;20057;-84
2023/10/10 10:36:45;;;;;;;1375.27;585.67;;;19.70;99.90;;;;;;5010421;28;20137;-83
2023/10/10 10:39:23;;;;;;;1312.20;627.43;;;19.70;99.90;;;;;;4993469;28;20197;-83
2023/10/10 10:41:53;;;;;;;1378.67;584.97;;;19.80;99.90;;;;;;4987478;28;20300;-84
2023/10/10 10:47:45;;;;;;;1378.60;587.67;;;20.10;99.90;;;;;;4936142;29;20377;-83
2023/10/10 10:50:29;;;;;;;1313.00;637.43;;;20.20;99.90;;;;;;4952191;28;20055;-83
2023/10/10 10:53:06;;;;;;;1316.70;641.43;;;20.30;99.90;;;;;;4946118;28;20065;-83
2023/10/10 10:55:39;;;;;;;1386.83;590.90;;;20.40;99.90;;;;;;4985570;28;20129;-84
2023/10/10 10:58:06;;;;;;;1379.00;586.33;;;20.40;99.90;;;;;;4979000;28;20061;-83
2023/10/10 11:01:00;;;;;;;1373.40;590.33;;;20.50;99.90;;;;;;4989989;28;20058;-85
2023/10/10 11:03:33;;;;;;;1309.97;652.10;;;20.60;99.90;;;;;;4971804;28;20058;-83
2023/10/10 11:06:07;;;;;;;1317.63;658.13;;;20.70;99.90;;;;;;4971309;28;20038;-87
2023/10/10 11:14:33;;;;;;;1318.83;660.93;;;21.00;99.90;;;;;;4985166;28;20058;-86
2023/10/10 11:16:57;;;;;;;1321.70;678.17;;;21.00;99.90;;;;;;4974637;28;20046;-87
2023/10/10 11:22:01;;;;;;;1380.50;608.17;;;21.20;99.90;;;;;;4978534;28;20050;-86
2023/10/10 11:24:29;;;;;;;1318.90;679.57;;;21.30;99.90;;;;;;5014751;28;20091;-85
2023/10/10 11:27:13;;;;;;;1325.33;690.23;;;21.30;99.90;;;;;;5075054;28;20049;-91
2023/10/10 11:30:06;;;;;;;1324.37;689.80;;;21.40;99.90;;;;;;5075312;28;20044;-85
2023/10/10 11:32:47;;;;;;;1330.17;688.77;;;21.40;99.90;;;;;;5069966;28;20047;-86
2023/10/10 11:35:25;;;;;;;1334.10;695.47;;;21.20;99.90;;;;;;5074763;28;20044;-84
2023/10/10 11:38:00;;;;;;;1390.80;611.97;;;21.40;99.90;;;;;;5047080;28;20040;-82
2023/10/10 11:43:05;;;;;;;1397.07;605.37;;;21.40;99.90;;;;;;5094937;28;20048;-82
2023/10/10 11:45:51;;;;;;;1337.73;687.63;;;21.40;99.90;;;;;;5075643;28;20043;-82
2023/10/10 11:48:17;;;;;;;1341.32;684.45;;;21.50;99.90;;;;;;5064423;28;20471;-82
2023/10/10 11:50:50;;;;;;;1400.90;609.60;;;21.70;99.90;;;;;;5074636;28;20052;-82
2023/10/10 11:53:23;;;;;;;1403.07;607.93;;;21.70;99.90;;;;;;5093907;28;20048;-82
2023/10/10 11:56:04;;;;;;;1333.67;693.87;;;21.70;99.90;;;;;;5083685;28;20087;-83
2023/10/10 11:58:38;;;;;;;1332.57;684.50;;;21.60;99.90;;;;;;5074198;28;20033;-82
2023/10/10 12:01:09;;;;;;;1396.47;603.33;;;21.60;99.90;;;;;;5056673;28;20110;-82
2023/10/10 12:06:04;;;;;;;1335.10;682.57;;;21.60;99.90;;;;;;5056993;28;20048;-83
2023/10/10 12:08:39;;;;;;;;;;;21.60;99.90;;;;;;5074671;28;20048;-83
2023/10/10 12:11:06;;;;;;;1399.80;605.27;;;21.70;99.90;;;;;;5056124;28;19924;-83
2023/10/10 12:16:10;;;;;;;1402.60;603.53;;;21.80;99.90;;;;;;5090442;28;20059;-83
2023/10/10 12:18:43;;;;;;;1332.40;674.77;;;21.90;99.90;;;;;;5089813;28;20055;-82
2023/10/10 12:21:21;;;;;;;1408.07;604.27;;;21.90;99.90;;;;;;5077184;28;20480;-81
2023/10/10 12:23:52;;;;;;;1326.67;669.17;;;22.10;99.90;;;;;;5092332;28;20079;-80
2023/10/10 12:26:18;;;;;;;1324.57;672.00;;;22.10;99.90;;;;;;5076137;28;20052;-82
2023/10/10 12:28:47;;;;;;;1327.63;674.83;;;22.10;99.90;;;;;;5093788;28;20040;-81
2023/10/10 12:31:21;;;;;;;1328.67;678.40;;;22.10;99.90;;;;;;5094245;28;20059;-83
2023/10/10 12:33:48;;;;;;;1344.97;649.15;;;22.20;99.90;;;;;;5094166;28;20461;-87
2023/10/10 12:36:15;;;;;;;1423.00;587.70;;;22.20;99.90;;;;;;5076423;28;20052;-85
2023/10/10 12:38:41;;;;;;;1345.57;634.23;;;22.40;99.90;;;;;;5056372;28;20076;-85
2023/10/10 12:41:11;;;;;;;1342.40;624.47;;;22.60;99.90;;;;;;5073005;28;20082;-85
2023/10/10 12:43:37;;;;;;;1344.83;643.83;;;22.60;99.90;;;;;;5075951;28;20059;-85
2023/10/10 12:46:09;;;;;;;1343.97;627.43;;;22.60;99.90;;;;;;5094098;28;20048;-86
2023/10/10 12:48:41;;;;;;;1332.43;607.73;;;22.60;99.90;;;;;;5075783;28;20067;-83
2023/10/10 12:51:10;;;;;;;1332.47;606.27;;;22.60;99.90;;;;;;5075882;28;20181;-86
2023/10/10 12:53:39;;;;;;;1322.07;595.57;;;22.50;99.90;;;;;;5076248;28;20484;-87
2023/10/10 12:56:10;;;;;;;1432.10;575.90;;;22.50;99.90;;;;;;5092822;28;20122;-86
2023/10/10 12:58:42;;;;;;;1323.50;597.83;;;22.50;99.90;;;;;;5093792;28;20048;-85
2023/10/10 13:01:12;;;;;;;1429.93;575.43;;;22.40;99.90;;;;;;5076020;28;20044;-87
2023/10/10 13:03:38;;;;;;;1425.00;567.33;;;22.40;99.90;;;;;;5093869;28;20048;-84
2023/10/10 13:06:04;;;;;;;1319.97;565.47;;;22.40;99.90;;;;;;5092985;28;20442;-87
2023/10/10 13:08:47;;;;;;;1310.43;566.13;;;22.40;99.90;;;;;;5093916;28;20123;-87
2023/10/10 13:11:32;;;;;;;1415.73;556.97;;;22.40;99.90;;;;;;5093697;28;20032;-87
2023/10/10 13:14:08;;;;;;;1415.70;561.75;;;22.50;99.90;;;;;;5092231;28;20048;-87
2023/10/10 13:19:13;;;;;;;1308.53;569.77;;;22.30;99.90;;;;;;5075003;28;20515;-87
2023/10/10 13:21:41;;;;;;;1301.47;565.93;;;22.20;99.90;;;;;;5057014;28;20040;-83
2023/10/10 13:24:11;;;;;;;1413.07;564.50;;;22.30;99.90;;;;;;5060826;28;20480;-86
2023/10/10 13:26:38;;;;;;;1302.50;560.50;;;22.30;99.90;;;;;;5075074;28;20060;-87
2023/10/10 13:29:05;;;;;;;1480.33;627.10;;;22.30;99.90;;;;;;5057951;28;20512;-86
2023/10/10 13:31:31;;;;;;;1474.03;623.53;;;22.30;99.90;;;;;;5073674;28;20068;-85
2023/10/10 13:33:57;;;;;;;1401.27;743.57;;;22.30;99.90;;;;;;5055978;28;20062;-84
2023/10/10 13:36:23;;;;;;;1479.63;619.83;;;22.20;99.90;;;;;;5055574;28;20110;-85
2023/10/10 13:38:50;;;;;;;1487.30;621.90;;;22.10;99.90;;;;;;5077328;28;20040;-84
2023/10/10 13:41:24;;;;;;;1481.00;616.47;;;21.90;99.90;;;;;;5073050;28;20040;-84
2023/10/10 13:43:52;;;;;;;1480.70;618.57;;;21.90;99.90;;;;;;5091187;28;20040;-83
2023/10/10 13:46:19;;;;;;;1479.97;618.10;;;21.80;99.90;;;;;;5108963;28;20048;-85
2023/10/10 13:48:46;;;;;;;1392.87;732.90;;;21.80;99.90;;;;;;5075390;28;20074;-85
2023/10/10 13:51:13;;;;;;;1481.83;617.00;;;21.80;99.90;;;;;;5092757;28;20358;-85
2023/10/10 13:53:40;;;;;;;1481.20;616.60;;;21.70;99.90;;;;;;5093310;28;20496;-83
2023/10/10 13:56:07;;;;;;;1404.43;728.83;;;21.60;99.90;;;;;;5093300;28;20044;-83
2023/10/10 13:58:34;;;;;;;1398.93;715.07;;;21.50;99.90;;;;;;5075592;28;20374;-84
2023/10/10 14:03:48;;;;;;;1484.27;610.30;;;21.40;99.90;;;;;;5108867;28;20044;-83
2023/10/10 14:06:20;;;;;;;1395.50;711.87;;;21.40;99.90;;;;;;5108724;28;20058;-83
2023/10/10 14:08:49;;;;;;;1483.70;613.53;;;21.50;99.90;;;;;;5101892;28;20068;-83
2023/10/10 14:11:22;;;;;;;1395.30;722.30;;;21.40;99.90;;;;;;5089418;28;20052;-82
2023/10/10 14:13:48;;;;;;;1479.93;606.87;;;21.30;99.90;;;;;;5072120;28;20040;-83
2023/10/10 14:16:14;;;;;;;1468.87;610.20;;;21.30;99.90;;;;;;5071917;28;20049;-81
2023/10/10 14:18:43;;;;;;;1393.03;715.73;;;21.30;99.90;;;;;;5090110;28;20052;-84
2023/10/10 14:21:10;;;;;;;1392.43;705.33;;;21.30;99.90;;;;;;5090110;28;20045;-82
2023/10/10 14:23:40;;;;;;;1390.87;710.10;;;21.20;99.90;;;;;;5072985;28;20547;-83
2023/10/10 14:26:13;;;;;;;1474.90;611.87;;;21.10;99.90;;;;;;5088403;28;20060;-83
2023/10/10 14:28:50;;;;;;;1396.10;710.27;;;21.10;99.90;;;;;;5110634;28;20048;-82
2023/10/10 14:31:27;;;;;;;1472.93;606.77;;;21.00;99.90;;;;;;5087048;28;20040;-84
2023/10/10 14:33:54;;;;;;;1392.57;699.67;;;20.90;99.90;;;;;;5082970;28;20485;-83
2023/10/10 14:36:21;;;;;;;1394.20;704.93;;;20.90;99.90;;;;;;5074903;28;20059;-85
2023/10/10 14:38:51;;;;;;;1478.47;608.00;;;20.90;99.90;;;;;;5073686;28;20116;-82
2023/10/10 14:41:18;;;;;;;1398.60;710.37;;;20.80;99.90;;;;;;5074275;28;20527;-84
2023/10/10 14:43:47;;;;;;;1397.03;700.30;;;20.80;99.90;;;;;;5058410;28;20040;-84
2023/10/10 14:46:24;;;;;;;1397.80;698.23;;;20.70;99.90;;;;;;5042649;28;20048;-83
2023/10/10 14:49:00;;;;;;;1486.13;612.93;;;20.70;99.90;;;;;;5085838;28;20051;-83
2023/10/10 14:51:33;;;;;;;1397.70;694.77;;;20.70;99.90;;;;;;5095762;28;20079;-82
2023/10/10 14:54:11;;;;;;;1401.63;697.73;;;20.60;99.90;;;;;;5096708;28;20059;-83
2023/10/10 14:56:49;;;;;;;1402.43;690.33;;;20.60;99.90;;;;;;5060759;28;20040;-83
2023/10/10 14:59:31;;;;;;;1402.60;694.67;;;20.50;99.90;;;;;;5066070;28;20044;-83
2023/10/10 15:01:59;;;;;;;1482.83;605.10;;;20.50;99.90;;;;;;5076004;28;20116;-84
2023/10/10 15:04:29;;;;;;;1484.37;601.10;;;20.40;99.90;;;;;;5074679;28;20039;-84
2023/10/10 15:06:55;;;;;;;1477.07;595.20;;;20.40;99.90;;;;;;5075853;28;20264;-83
2023/10/10 15:09:24;;;;;;;1397.43;686.00;;;20.40;99.90;;;;;;5076410;28;20445;-84
2023/10/10 15:11:51;;;;;;;1476.17;602.83;;;20.40;99.90;;;;;;5075252;28;20037;-85
2023/10/10 15:14:21;;;;;;;1480.43;603.77;;;20.40;99.90;;;;;;5075649;28;20036;-82
2023/10/10 15:16:47;;;;;;;1398.87;688.13;;;20.40;99.90;;;;;;5079189;28;20048;-84
2023/10/10 15:19:13;;;;;;;1481.93;600.07;;;20.50;99.90;;;;;;5090635;28;20046;-84
2023/10/10 15:21:40;;;;;;;1398.93;688.73;;;20.50;99.90;;;;;;5075511;28;20374;-84
2023/10/10 15:24:14;;;;;;;1485.00;598.83;;;20.40;99.90;;;;;;5074561;28;20490;-83
2023/10/10 15:26:51;;;;;;;1482.13;596.33;;;20.40;99.90;;;;;;5057094;28;20048;-83